Cambridgeport, Massachusetts
Current Conditions -  °F | °C
As of 3:39 PM on Wednesday 26 Nov 2014 (Local Time) from KBOS Reporting Station
Hail Hail  
Wind Chill: 22°   Ceiling: 700
Heat Index: 34°   Visibility: 1.7mi
Dew Point: 34°   Wind: 23mph
Humidity: 100%   Direction: 20°NNE
Pressure: 29.97"   Gusts: 26mph
Location:  42.3631°N, 71.1033°W
Report Text: KBOS 262039Z 02020G23KT 1 3/4SM GSPLRA BR BKN007 OVC013 01/01 A2997 RMK AO2 PK WND 03026/1956 TWR VIS 2 GSB33 P0015 $
Loading
Personal Weather Stations






























Interactive Weather Map New forecast layout! Learn more

10-Day Weather Forecast

Advertisements
Track Severe Weather on mobile